Time;durP1;ratioP1;P1;durP2;ratioP2;P2;SDS_P1;SDS_P2;PMS_P1;PMS_P2;Temp;Humidity;BMP_temperature;BMP_pressure;BME280_temperature;BME280_humidity;BME280_pressure;Samples;Min_cycle;Max_cycle;Signal;HPM_P1;HPM_P2
2024/04/16 16:21:41;;;;;;;;;;;;;;;10.21;54.66;96594.97;5510031;25;2055972;-56
2024/04/16 16:24:32;;;;;;;;;;;;;;;10.07;55.51;96667.78;5543535;25;19934;-56
2024/04/16 16:27:19;;;;;;;;;;;;;;;9.21;57.03;96683.81;5542275;25;19927;-56
2024/04/16 16:30:09;;;;;;;;;;;;;;;8.44;60.95;96666.22;5538397;25;19928;-56
2024/04/16 16:33:03;;;;;;;;;;;;;;;7.11;68.53;96676.16;5530551;25;19927;-56
2024/04/16 16:35:50;;;;;;;;;;;;;;;6.84;72.13;96677.25;5533159;25;20345;-57
2024/04/16 16:38:43;;;;;;;;;;;;;;;6.28;74.55;96706.69;5514745;25;19935;-56
2024/04/16 16:41:31;;;;;;;;;;;;;;;6.61;73.91;96700.09;5537928;25;20394;-56
2024/04/16 16:44:22;;;;;;;;;;;;;;;6.34;75.69;96714.63;5532824;25;21858;-56
2024/04/16 16:47:09;;;;;;;;;;;;;;;6.39;75.32;96707.22;5522054;25;20433;-56
2024/04/16 16:49:59;;;;;;;;;;;;;;;6.63;75.09;96681.69;5534389;25;19945;-57
2024/04/16 16:52:46;;;;;;;;;;;;;;;6.60;75.62;96691.19;5531828;25;19934;-58
2024/04/16 16:55:39;;;;;;;;;;;;;;;6.42;75.99;96706.56;5533787;25;19927;-56
2024/04/16 16:58:26;;;;;;;;;;;;;;;6.49;76.58;96696.09;5536525;25;19928;-56
2024/04/16 17:01:16;;;;;;;;;;;;;;;6.05;78.20;96705.16;5527469;25;19942;-56
2024/04/16 17:04:03;;;;;;;;;;;;;;;6.36;78.17;96715.13;5527339;25;20380;-57
2024/04/16 17:06:53;;;;;;;;;;;;;;;6.43;78.26;96696.56;5527591;25;19928;-57
2024/04/16 17:09:40;;;;;;;;;;;;;;;6.43;77.68;96683.88;5525465;25;19967;-56
2024/04/16 17:12:33;;;;;;;;;;;;;;;6.49;78.00;96660.22;5532173;25;19927;-58
2024/04/16 17:15:25;;;;;;;;;;;;;;;6.57;78.04;96689.16;5501402;25;19999;-56
2024/04/16 17:18:12;;;;;;;;;;;;;;;6.53;78.22;96696.28;5524838;25;19934;-57
2024/04/16 17:21:02;;;;;;;;;;;;;;;6.43;78.79;96694.66;5529933;25;20260;-57
2024/04/16 17:23:50;;;;;;;;;;;;;;;6.35;79.85;96692.75;5533077;25;20654;-58
2024/04/16 17:26:40;;;;;;;;;;;;;;;6.51;79.55;96703.91;5528457;25;19927;-57
2024/04/16 17:29:30;;;;;;;;;;;;;;;6.34;80.00;96718.13;5537914;25;19999;-57
2024/04/16 17:32:19;;;;;;;;;;;;;;;6.33;81.04;96715.72;5515507;25;19935;-57
2024/04/16 17:35:07;;;;;;;;;;;;;;;6.49;81.22;96714.19;5509969;26;19950;-57
2024/04/16 17:37:57;;;;;;;;;;;;;;;6.48;80.56;96723.41;5508714;26;20270;-58
2024/04/16 17:40:44;;;;;;;;;;;;;;;6.51;81.06;96725.47;5510873;26;19943;-58
2024/04/16 17:43:34;;;;;;;;;;;;;;;6.60;80.35;96723.56;5512400;26;19927;-58
2024/04/16 17:46:24;;;;;;;;;;;;;;;6.62;79.73;96718.69;5503427;26;19927;-59
2024/04/16 17:49:15;;;;;;;;;;;;;;;6.56;80.04;96725.34;5514693;26;19935;-58
2024/04/16 17:52:02;;;;;;;;;;;;;;;6.45;80.35;96715.94;5490259;26;19928;-58
2024/04/16 17:54:53;;;;;;;;;;;;;;;6.60;79.58;96720.09;5509587;26;19932;-57
2024/04/16 17:57:40;;;;;;;;;;;;;;;6.60;79.68;96725.47;5479078;26;19961;-58
2024/04/16 18:00:31;;;;;;;;;;;;;;;6.67;79.03;96733.94;5505682;26;20292;-57
2024/04/16 18:03:21;;;;;;;;;;;;;;;6.59;79.59;96734.69;5510836;26;20433;-58
2024/04/16 18:06:10;;;;;;;;;;;;;;;6.79;79.33;96750.31;5496553;25;19928;-58
2024/04/16 18:08:59;;;;;;;;;;;;;;;6.95;78.58;96732.53;5512441;26;19999;-58
2024/04/16 18:11:49;;;;;;;;;;;;;;;7.07;78.10;96724.59;5498886;26;20346;-56
2024/04/16 18:14:36;;;;;;;;;;;;;;;7.07;77.82;96726.50;5513415;26;19928;-57
2024/04/16 18:17:26;;;;;;;;;;;;;;;7.18;77.17;96735.09;5505700;26;19928;-57
2024/04/16 18:20:19;;;;;;;;;;;;;;;7.17;76.88;96734.28;5510280;26;19939;-57
2024/04/16 18:23:06;;;;;;;;;;;;;;;7.13;77.25;96741.44;5506293;26;19932;-57
2024/04/16 18:25:57;;;;;;;;;;;;;;;7.12;76.85;96739.84;5505290;26;19935;-57
2024/04/16 18:28:44;;;;;;;;;;;;;;;6.94;77.57;96757.94;5519930;26;19928;-57
2024/04/16 18:31:36;;;;;;;;;;;;;;;7.00;77.58;96762.09;5517290;26;19927;-59
2024/04/16 18:34:26;;;;;;;;;;;;;;;7.05;76.86;96777.34;5518148;26;19927;-57
2024/04/16 18:37:20;;;;;;;;;;;;;;;7.14;76.61;96775.47;5508837;26;20022;-57
2024/04/16 18:40:07;;;;;;;;;;;;;;;7.23;75.76;96764.63;5512293;26;19928;-56
2024/04/16 18:42:57;;;;;;;;;;;;;;;7.26;75.56;96770.22;5506181;26;19928;-57
2024/04/16 18:45:45;;;;;;;;;;;;;;;7.26;76.55;96774.81;5509872;26;19995;-57
2024/04/16 18:48:35;;;;;;;;;;;;;;;7.14;77.33;96783.56;5503652;26;19928;-57
2024/04/16 18:51:24;;;;;;;;;;;;;;;7.32;77.31;96774.34;5503573;26;19927;-57
2024/04/16 18:54:16;;;;;;;;;;;;;;;7.31;77.47;96782.78;5515500;26;19927;-57
2024/04/16 18:57:05;;;;;;;;;;;;;;;7.17;77.71;96771.31;5503145;26;19928;-57
2024/04/16 18:59:56;;;;;;;;;;;;;;;7.32;77.93;96784.34;5512999;26;19934;-57
2024/04/16 19:02:44;;;;;;;;;;;;;;;7.33;76.86;96780.53;5507841;26;20365;-57
2024/04/16 19:05:33;;;;;;;;;;;;;;;7.41;76.78;96782.47;5501423;25;19935;-57
2024/04/16 19:08:23;;;;;;;;;;;;;;;7.41;76.89;96782.47;5512035;26;19927;-57
2024/04/16 19:11:13;;;;;;;;;;;;;;;7.36;77.24;96779.91;5505463;25;19942;-57
2024/04/16 19:14:05;;;;;;;;;;;;;;;7.25;77.54;96795.66;5514645;25;19952;-57
2024/04/16 19:16:52;;;;;;;;;;;;;;;7.41;76.90;96798.69;5513078;25;20565;-57
2024/04/16 19:19:44;;;;;;;;;;;;;;;7.47;76.71;96796.59;5501878;25;19928;-57
2024/04/16 19:22:31;;;;;;;;;;;;;;;7.46;77.02;96800.44;5505468;25;20365;-56
2024/04/16 19:25:21;;;;;;;;;;;;;;;7.47;77.65;96807.41;5504469;25;19995;-57
2024/04/16 19:28:11;;;;;;;;;;;;;;;7.51;77.67;96808.34;5504190;25;19927;-56
2024/04/16 19:31:02;;;;;;;;;;;;;;;7.45;77.22;96809.63;5471205;26;20437;-56
2024/04/16 19:33:51;;;;;;;;;;;;;;;7.46;77.61;96809.31;5496502;25;19928;-57
2024/04/16 19:36:41;;;;;;;;;;;;;;;7.55;77.54;96817.41;5496920;25;19939;-57
2024/04/16 19:39:28;;;;;;;;;;;;;;;7.48;77.52;96809.00;5510312;25;19932;-58
2024/04/16 19:42:18;;;;;;;;;;;;;;;7.58;77.54;96814.09;5498636;26;20370;-58
2024/04/16 19:45:08;;;;;;;;;;;;;;;7.61;77.04;96813.44;5511221;25;19927;-58
2024/04/16 19:47:57;;;;;;;;;;;;;;;7.47;78.69;96831.75;5501008;25;19927;-57
2024/04/16 19:50:45;;;;;;;;;;;;;;;7.57;77.91;96826.03;5511263;25;20264;-58
2024/04/16 19:53:36;;;;;;;;;;;;;;;7.27;78.60;96833.16;5507320;26;19928;-58
2024/04/16 19:56:23;;;;;;;;;;;;;;;7.48;78.42;96836.03;5507594;26;19928;-58
2024/04/16 19:59:14;;;;;;;;;;;;;;;7.43;77.31;96838.88;5476564;26;19975;-57
2024/04/16 20:02:07;;;;;;;;;;;;;;;7.52;77.47;96840.47;5500062;25;19928;-57
2024/04/16 20:04:54;;;;;;;;;;;;;;;7.42;77.71;96842.69;5499887;25;19927;-57
2024/04/16 20:07:44;;;;;;;;;;;;;;;7.35;76.05;96846.66;5507296;25;19938;-58
2024/04/16 20:10:31;;;;;;;;;;;;;;;7.19;76.51;96845.53;5506320;26;19927;-58
2024/04/16 20:13:21;;;;;;;;;;;;;;;7.32;76.73;96855.41;5507366;25;19939;-58
2024/04/16 20:16:11;;;;;;;;;;;;;;;7.35;76.81;96867.50;5503168;25;19996;-57
2024/04/16 20:19:04;;;;;;;;;;;;;;;7.30;75.51;96871.13;5504933;25;19932;-57
2024/04/16 20:21:51;;;;;;;;;;;;;;;7.27;76.26;96876.38;5481762;26;19951;-57
2024/04/16 20:24:43;;;;;;;;;;;;;;;7.33;76.17;96875.09;5477373;26;19928;-58
2024/04/16 20:27:32;;;;;;;;;;;;;;;7.25;75.77;96882.09;5492967;26;19928;-58
2024/04/16 20:30:22;;;;;;;;;;;;;;;7.34;76.03;96891.00;5477567;25;19998;-57
2024/04/16 20:33:09;;;;;;;;;;;;;;;7.22;76.44;96887.31;5512093;26;19956;-57
2024/04/16 20:36:02;;;;;;;;;;;;;;;7.32;76.15;96897.84;5506727;25;20610;-57
2024/04/16 20:38:49;;;;;;;;;;;;;;;7.26;76.13;96886.38;5501827;26;19939;-57
2024/04/16 20:41:39;;;;;;;;;;;;;;;7.36;75.78;96882.59;5515704;26;19931;-57
2024/04/16 20:44:26;;;;;;;;;;;;;;;7.35;75.81;96881.78;5508764;25;19934;-57
2024/04/16 20:47:16;;;;;;;;;;;;;;;7.23;76.79;96889.69;5510057;25;20388;-57
2024/04/16 20:50:04;;;;;;;;;;;;;;;7.27;77.40;96887.16;5505283;25;19936;-57
2024/04/16 20:52:56;;;;;;;;;;;;;;;7.31;76.85;96886.22;5513091;25;20385;-57
2024/04/16 20:55:44;;;;;;;;;;;;;;;7.31;77.34;96891.63;5510953;25;19963;-57
2024/04/16 20:58:34;;;;;;;;;;;;;;;7.15;77.59;96892.41;5509321;26;19942;-58
2024/04/16 21:01:23;;;;;;;;;;;;;;;7.23;77.61;96897.81;5508594;25;19927;-58
2024/04/16 21:04:11;;;;;;;;;;;;;;;7.26;77.27;96910.69;5517484;26;19927;-57
2024/04/16 21:07:00;;;;;;;;;;;;;;;7.19;77.60;96910.38;5515187;26;19935;-57
2024/04/16 21:09:50;;;;;;;;;;;;;;;7.19;77.14;96912.25;5514712;26;19955;-57
2024/04/16 21:12:40;;;;;;;;;;;;;;;7.23;77.00;96915.91;5502557;26;19927;-56
2024/04/16 21:15:30;;;;;;;;;;;;;;;7.20;76.51;96921.97;5496983;26;20370;-57
2024/04/16 21:18:17;;;;;;;;;;;;;;;7.09;77.29;96927.66;5514639;26;19927;-57
2024/04/16 21:21:07;;;;;;;;;;;;;;;7.03;77.91;96920.81;5508095;25;19940;-57
2024/04/16 21:23:54;;;;;;;;;;;;;;;7.00;78.18;96917.91;5511762;26;19927;-57
2024/04/16 21:26:47;;;;;;;;;;;;;;;7.00;77.69;96920.63;5510004;25;19938;-57
2024/04/16 21:29:34;;;;;;;;;;;;;;;7.03;77.74;96925.38;5520697;26;20364;-57
2024/04/16 21:32:24;;;;;;;;;;;;;;;6.89;78.35;96927.41;5486873;26;19996;-56
2024/04/16 21:35:11;;;;;;;;;;;;;;;6.92;77.65;96918.66;5509728;26;19928;-57
2024/04/16 21:38:01;;;;;;;;;;;;;;;6.83;77.85;96924.03;5506441;26;19928;-56
2024/04/16 21:40:49;;;;;;;;;;;;;;;6.88;77.99;96917.72;5508804;26;19939;-56
2024/04/16 21:43:41;;;;;;;;;;;;;;;6.89;77.58;96914.69;5494102;26;19952;-56
2024/04/16 21:46:32;;;;;;;;;;;;;;;6.95;77.46;96924.25;5509180;25;20342;-57
2024/04/16 21:49:19;;;;;;;;;;;;;;;6.91;77.71;96923.28;5502995;25;19927;-59
2024/04/16 21:52:09;;;;;;;;;;;;;;;6.94;77.73;96925.38;5501751;25;19984;-58
2024/04/16 21:54:56;;;;;;;;;;;;;;;6.96;77.21;96931.22;5507017;25;20440;-58
2024/04/16 21:57:46;;;;;;;;;;;;;;;6.94;78.14;96935.38;5504717;25;19935;-57
2024/04/16 22:00:37;;;;;;;;;;;;;;;6.96;77.59;96933.13;5507390;25;20310;-57
2024/04/16 22:03:27;;;;;;;;;;;;;;;6.98;77.53;96936.34;5502060;25;19947;-56
2024/04/16 22:06:14;;;;;;;;;;;;;;;6.81;78.25;96937.84;5512018;25;20533;-56
2024/04/16 22:09:05;;;;;;;;;;;;;;;6.78;78.28;96934.97;5508994;26;20372;-56
2024/04/16 22:11:52;;;;;;;;;;;;;;;6.62;79.08;96937.28;5472764;26;19931;-56
2024/04/16 22:14:42;;;;;;;;;;;;;;;6.69;78.30;96939.53;5501298;25;19928;-57
2024/04/16 22:17:32;;;;;;;;;;;;;;;6.70;78.93;96941.91;5505926;25;19951;-58
2024/04/16 22:20:22;;;;;;;;;;;;;;;6.65;79.20;96933.94;5508611;25;19927;-56
2024/04/16 22:23:09;;;;;;;;;;;;;;;6.58;79.76;96939.00;5501696;25;19942;-57
2024/04/16 22:26:00;;;;;;;;;;;;;;;6.59;78.88;96937.09;5509297;25;20012;-57
2024/04/16 22:28:47;;;;;;;;;;;;;;;6.56;79.08;96931.22;5511332;25;19935;-56
2024/04/16 22:31:37;;;;;;;;;;;;;;;6.58;78.95;96939.00;5507014;25;20393;-56
2024/04/16 22:34:27;;;;;;;;;;;;;;;6.58;78.98;96944.38;5500484;25;19928;-58
2024/04/16 22:37:19;;;;;;;;;;;;;;;6.56;78.72;96946.59;5506946;25;19947;-56
2024/04/16 22:40:06;;;;;;;;;;;;;;;6.57;78.97;96945.50;5507631;26;19997;-56
2024/04/16 22:42:56;;;;;;;;;;;;;;;6.51;79.24;96949.44;5508332;25;19938;-56
2024/04/16 22:45:47;;;;;;;;;;;;;;;6.50;79.28;96950.53;5508368;25;19942;-56
2024/04/16 22:48:37;;;;;;;;;;;;;;;6.51;78.69;96952.13;5508141;25;19927;-56
2024/04/16 22:51:27;;;;;;;;;;;;;;;6.41;78.78;96957.78;5499634;26;19935;-56
2024/04/16 22:54:17;;;;;;;;;;;;;;;6.38;79.23;96956.47;5505719;26;19928;-58
2024/04/16 22:57:04;;;;;;;;;;;;;;;6.35;79.17;96956.31;5508599;26;19927;-57
2024/04/16 22:59:55;;;;;;;;;;;;;;;6.40;79.32;96964.28;5490247;26;20022;-56
2024/04/16 23:02:42;;;;;;;;;;;;;;;6.51;78.73;96960.22;5509379;25;19980;-57
2024/04/16 23:05:32;;;;;;;;;;;;;;;6.51;78.42;96962.94;5501675;26;19942;-57
2024/04/16 23:08:22;;;;;;;;;;;;;;;6.45;78.52;96966.84;5504637;25;19928;-58
2024/04/16 23:11:13;;;;;;;;;;;;;;;6.39;78.89;96962.66;5504767;25;20270;-56
2024/04/16 23:14:00;;;;;;;;;;;;;;;6.42;78.79;96962.06;5506347;25;19927;-57
2024/04/16 23:16:50;;;;;;;;;;;;;;;6.41;78.52;96960.47;5493860;26;19996;-57
2024/04/16 23:19:37;;;;;;;;;;;;;;;6.43;78.46;96964.44;5506802;25;19943;-57
2024/04/16 23:22:27;;;;;;;;;;;;;;;6.42;78.39;96962.06;5514936;25;19928;-57
2024/04/16 23:25:17;;;;;;;;;;;;;;;6.41;78.49;96955.88;5500913;26;20366;-59
2024/04/16 23:28:07;;;;;;;;;;;;;;;6.31;78.15;96950.72;5510247;26;19927;-58
2024/04/16 23:30:57;;;;;;;;;;;;;;;6.24;78.36;96953.06;5512758;25;19932;-57
2024/04/16 23:33:44;;;;;;;;;;;;;;;6.27;78.30;96960.53;5508946;25;20272;-57
2024/04/16 23:36:34;;;;;;;;;;;;;;;6.25;78.61;96951.97;5507807;25;19935;-57
2024/04/16 23:39:22;;;;;;;;;;;;;;;6.26;78.94;96959.72;5509380;25;20475;-57
2024/04/16 23:42:14;;;;;;;;;;;;;;;6.20;79.68;96966.34;5505475;25;19928;-57
2024/04/16 23:45:02;;;;;;;;;;;;;;;6.28;79.06;96962.94;5499088;25;19927;-56
2024/04/16 23:47:52;;;;;;;;;;;;;;;6.28;79.33;96973.72;5502973;26;19934;-56
2024/04/16 23:50:39;;;;;;;;;;;;;;;6.33;78.86;96963.91;5506947;25;19959;-57
2024/04/16 23:53:29;;;;;;;;;;;;;;;6.28;79.09;96962.94;5511128;26;20293;-56
2024/04/16 23:56:16;;;;;;;;;;;;;;;6.23;79.14;96973.84;5512983;25;19938;-57
2024/04/16 23:59:09;;;;;;;;;;;;;;;6.22;79.34;96974.13;5511606;25;20393;-57
